createdAt,value
2022-09-21T00:01:36.897Z,102138.97
2022-09-21T00:04:03.891Z,102140.34
2022-09-21T00:06:31.912Z,102138.81
2022-09-21T00:08:58.247Z,102137.31
2022-09-21T00:11:28.948Z,102139.94
2022-09-21T00:13:57.131Z,102144.50
2022-09-21T00:16:24.249Z,102143.00
2022-09-21T00:18:50.669Z,102133.19
2022-09-21T00:21:17.127Z,102141.03
2022-09-21T00:23:44.126Z,102134.97
2022-09-21T00:26:11.876Z,102133.47
2022-09-21T00:28:38.467Z,102144.78
2022-09-21T00:31:06.719Z,102144.94
2022-09-21T00:33:33.878Z,102142.16
2022-09-21T00:36:07.425Z,102144.53
2022-09-21T00:38:34.418Z,102148.66
2022-09-21T00:41:00.842Z,102147.16
2022-09-21T00:43:27.447Z,102142.75
2022-09-21T00:45:58.706Z,102146.34
2022-09-21T00:48:25.460Z,102146.50
2022-09-21T00:50:54.319Z,102149.38
2022-09-21T00:53:21.868Z,102152.16
2022-09-21T00:55:50.979Z,102152.16
2022-09-21T00:58:23.028Z,102150.50
2022-09-21T01:00:49.729Z,102138.50
2022-09-21T01:03:16.128Z,102141.94
2022-09-21T01:05:42.470Z,102151.19
2022-09-21T01:08:12.318Z,102138.81
2022-09-21T01:10:46.712Z,102147.25
2022-09-21T01:13:19.175Z,102144.06
2022-09-21T01:15:55.624Z,102140.63
2022-09-21T01:18:24.975Z,102146.00
2022-09-21T01:20:51.584Z,102146.44
2022-09-21T01:23:23.675Z,102143.66
2022-09-21T01:25:59.900Z,102150.97
2022-09-21T01:28:38.196Z,102153.59
2022-09-21T01:31:07.344Z,102147.78
2022-09-21T01:33:37.359Z,102146.16
2022-09-21T01:36:08.045Z,102148.38
2022-09-21T01:38:43.727Z,102146.03
2022-09-21T01:41:12.149Z,102148.78
2022-09-21T01:43:40.882Z,102148.94
2022-09-21T01:46:09.680Z,102142.88
2022-09-21T01:48:38.348Z,102148.38
2022-09-21T01:51:07.305Z,102142.63
2022-09-21T01:53:37.655Z,102145.50
2022-09-21T01:56:20.675Z,102141.78
2022-09-21T01:59:03.661Z,102145.50
2022-09-21T02:01:32.067Z,102136.41
2022-09-21T02:04:01.867Z,102138.09
2022-09-21T02:06:29.310Z,102140.72
2022-09-21T02:08:56.072Z,102142.47
2022-09-21T02:11:22.607Z,102135.19
2022-09-21T02:13:51.083Z,102142.22
2022-09-21T02:16:31.656Z,102141.53
2022-09-21T02:18:58.000Z,102144.41
2022-09-21T02:21:41.566Z,102148.69
2022-09-21T02:24:08.036Z,102151.31
2022-09-21T02:26:39.455Z,102148.81
2022-09-21T02:29:05.775Z,102144.03
2022-09-21T02:31:34.915Z,102156.41
2022-09-21T02:34:14.768Z,102152.44
2022-09-21T02:36:47.124Z,102152.69
2022-09-21T02:39:23.371Z,102152.84
2022-09-21T02:42:03.194Z,102151.03
2022-09-21T02:44:35.667Z,102143.34
2022-09-21T02:47:02.023Z,102141.41
2022-09-21T02:49:33.807Z,102139.63
2022-09-21T02:52:05.211Z,102133.03
2022-09-21T02:54:32.767Z,102134.00
2022-09-21T02:57:00.436Z,102134.81
2022-09-21T02:59:27.519Z,102134.41
2022-09-21T03:01:55.588Z,102137.69
2022-09-21T03:04:23.052Z,102138.81
2022-09-21T03:06:49.422Z,102137.84
2022-09-21T03:09:15.853Z,102137.00
2022-09-21T03:11:44.895Z,102139.06
2022-09-21T03:14:11.251Z,102141.00
2022-09-21T03:16:38.080Z,102139.78
2022-09-21T03:19:05.078Z,102134.94
2022-09-21T03:21:31.644Z,102138.53
2022-09-21T03:23:57.992Z,102138.09
2022-09-21T03:26:24.425Z,102144.97
2022-09-21T03:28:51.225Z,102145.38
2022-09-21T03:31:17.731Z,102149.13
2022-09-21T03:33:44.166Z,102146.63
2022-09-21T03:36:10.554Z,102149.50
2022-09-21T03:38:37.718Z,102147.19
2022-09-21T03:41:04.507Z,102152.41
2022-09-21T03:43:30.894Z,102149.66
2022-09-21T03:45:57.833Z,102161.34
2022-09-21T03:48:24.199Z,102151.16
2022-09-21T03:50:50.571Z,102155.56
2022-09-21T03:53:16.926Z,102159.94
2022-09-21T03:55:43.316Z,102155.25
2022-09-21T03:58:09.660Z,102150.72
2022-09-21T04:00:36.265Z,102154.31
2022-09-21T04:03:02.649Z,102155.38
2022-09-21T04:05:29.042Z,102148.09
2022-09-21T04:07:56.544Z,102151.38
2022-09-21T04:10:27.002Z,102156.75
2022-09-21T04:12:57.245Z,102157.16
2022-09-21T04:15:23.883Z,102155.50
2022-09-21T04:17:51.391Z,102154.81
2022-09-21T04:20:17.935Z,102161.25
2022-09-21T04:22:46.194Z,102158.78
2022-09-21T04:25:12.971Z,102164.00
2022-09-21T04:27:39.720Z,102157.28
2022-09-21T04:30:06.364Z,102160.09
2022-09-21T04:32:32.771Z,102164.50
2022-09-21T04:34:59.174Z,102159.97
2022-09-21T04:37:25.584Z,102170.84
2022-09-21T04:39:51.964Z,102170.00
2022-09-21T04:42:18.593Z,102163.94
2022-09-21T04:44:44.980Z,102168.22
2022-09-21T04:47:11.828Z,102176.31
2022-09-21T04:49:38.573Z,102175.63
2022-09-21T04:52:05.509Z,102177.28
2022-09-21T04:54:31.866Z,102176.16
2022-09-21T04:56:58.222Z,102178.75
2022-09-21T04:59:24.619Z,102183.16
2022-09-21T05:01:51.041Z,102175.56
2022-09-21T05:04:17.775Z,102175.44
2022-09-21T05:06:44.279Z,102175.72
2022-09-21T05:09:39.824Z,102180.34
2022-09-21T05:12:06.452Z,102181.19
2022-09-21T05:14:32.790Z,102190.34
2022-09-21T05:16:59.156Z,102197.50
2022-09-21T05:19:25.529Z,102192.03
2022-09-21T05:21:51.886Z,102196.44
2022-09-21T05:24:18.250Z,102186.53
2022-09-21T05:26:44.626Z,102196.44
2022-09-21T05:29:11.152Z,102200.38
2022-09-21T05:31:37.633Z,102201.59
2022-09-21T05:34:13.131Z,102201.31
2022-09-21T05:36:45.148Z,102204.06
2022-09-21T05:39:12.007Z,102206.00
2022-09-21T05:41:38.613Z,102212.28
2022-09-21T05:44:05.184Z,102215.59
2022-09-21T05:46:56.233Z,102214.50
2022-09-21T05:49:51.904Z,102213.81
2022-09-21T05:52:33.972Z,102218.91
2022-09-21T05:55:12.540Z,102224.00
2022-09-21T05:58:02.034Z,102224.72
2022-09-21T06:00:35.995Z,102225.16
2022-09-21T06:03:21.627Z,102222.72
2022-09-21T06:05:48.049Z,102232.47
2022-09-21T06:08:14.452Z,102227.41
2022-09-21T06:10:40.812Z,102233.31
2022-09-21T06:13:07.183Z,102236.75
2022-09-21T06:15:34.641Z,102233.31
2022-09-21T06:18:01.016Z,102240.91
2022-09-21T06:20:27.527Z,102242.56
2022-09-21T06:22:59.670Z,102241.88
2022-09-21T06:25:26.097Z,102242.81
2022-09-21T06:27:52.463Z,102245.69
2022-09-21T06:30:18.822Z,102244.50
2022-09-21T06:32:45.220Z,102248.03
2022-09-21T06:35:11.615Z,102242.56
2022-09-21T06:37:41.908Z,102244.31
2022-09-21T06:40:08.586Z,102245.56
2022-09-21T06:42:34.945Z,102245.03
2022-09-21T06:45:01.469Z,102240.44
2022-09-21T06:47:27.825Z,102241.56
2022-09-21T06:49:54.583Z,102251.81
2022-09-21T06:52:20.943Z,102250.50
2022-09-21T06:54:47.490Z,102250.00
2022-09-21T06:57:13.922Z,102248.19
2022-09-21T06:59:40.270Z,102251.31
2022-09-21T07:02:07.045Z,102242.44
2022-09-21T07:04:33.494Z,102245.63
2022-09-21T07:07:03.526Z,102251.69
2022-09-21T07:12:17.885Z,102254.25
2022-09-21T07:14:47.353Z,102258.66
2022-09-21T07:17:15.683Z,102260.25
2022-09-21T07:19:42.414Z,102264.69
2022-09-21T07:22:08.936Z,102263.94
2022-09-21T07:24:35.284Z,102259.00
2022-09-21T07:27:01.633Z,102260.78
2022-09-21T07:29:28.030Z,102257.09
2022-09-21T07:31:54.486Z,102256.13
2022-09-21T07:34:20.914Z,102253.91
2022-09-21T07:36:47.297Z,102261.41
2022-09-21T07:39:13.802Z,102257.72
2022-09-21T07:41:40.139Z,102257.47
2022-09-21T07:44:06.665Z,102250.84
2022-09-21T07:46:33.197Z,102254.00
2022-09-21T07:48:59.730Z,102251.94
2022-09-21T07:51:26.096Z,102248.44
2022-09-21T07:53:58.929Z,102260.72
2022-09-21T07:56:25.721Z,102253.63
2022-09-21T07:59:07.667Z,102255.63
2022-09-21T08:01:38.459Z,102256.88
2022-09-21T08:04:05.824Z,102258.44
2022-09-21T08:06:33.019Z,102256.50
2022-09-21T08:09:00.080Z,102258.72
2022-09-21T08:11:27.805Z,102253.59
2022-09-21T08:13:55.554Z,102249.50
2022-09-21T08:16:22.471Z,102250.44
2022-09-21T08:18:48.920Z,102258.16
2022-09-21T08:21:15.297Z,102257.03
2022-09-21T08:23:42.578Z,102255.53
2022-09-21T08:26:11.370Z,102257.75
2022-09-21T08:28:38.650Z,102255.28
2022-09-21T08:31:06.003Z,102262.66
2022-09-21T08:33:32.620Z,102267.47
2022-09-21T08:35:59.902Z,102268.34
2022-09-21T08:38:26.685Z,102270.00
2022-09-21T08:40:53.930Z,102263.25
2022-09-21T08:43:31.716Z,102265.22
2022-09-21T08:45:58.950Z,102270.41
2022-09-21T08:48:33.096Z,102263.66
2022-09-21T08:51:04.764Z,102265.19
2022-09-21T08:53:33.301Z,102260.16
2022-09-21T08:55:59.756Z,102263.88
2022-09-21T08:58:27.435Z,102254.28
2022-09-21T09:01:03.597Z,102256.81
2022-09-21T09:03:45.455Z,102260.50
2022-09-21T09:06:26.641Z,102267.19
2022-09-21T09:09:09.947Z,102265.97
2022-09-21T09:11:36.384Z,102269.53
2022-09-21T09:14:05.601Z,102266.91
2022-09-21T09:16:51.014Z,102261.97
2022-09-21T09:19:32.656Z,102258.63
2022-09-21T09:22:01.947Z,102267.72
2022-09-21T09:24:28.290Z,102262.19
2022-09-21T09:27:02.431Z,102261.88
2022-09-21T09:32:17.463Z,102261.16
2022-09-21T09:34:57.854Z,102260.78
2022-09-21T09:37:29.023Z,102259.56
2022-09-21T09:39:57.697Z,102266.69
2022-09-21T09:42:43.009Z,102268.16
2022-09-21T09:45:24.188Z,102261.47
2022-09-21T09:47:54.921Z,102252.94
2022-09-21T09:50:27.390Z,102256.84
2022-09-21T09:52:56.359Z,102264.00
2022-09-21T09:55:26.836Z,102259.47
2022-09-21T09:57:55.549Z,102263.00
2022-09-21T10:00:22.300Z,102251.25
2022-09-21T10:03:01.443Z,102257.81
2022-09-21T10:05:30.800Z,102257.59
2022-09-21T10:07:57.376Z,102255.00
2022-09-21T10:10:29.730Z,102259.88
2022-09-21T10:13:01.933Z,102257.75
2022-09-21T10:15:29.165Z,102253.66
2022-09-21T10:18:04.672Z,102253.47
2022-09-21T10:20:32.986Z,102252.22
2022-09-21T10:23:00.236Z,102248.53
2022-09-21T10:25:26.740Z,102249.06
2022-09-21T10:27:53.171Z,102249.13
2022-09-21T10:30:21.057Z,102241.28
2022-09-21T10:32:54.956Z,102247.72
2022-09-21T10:35:21.388Z,102239.28
2022-09-21T10:37:54.363Z,102241.72
2022-09-21T10:40:20.809Z,102242.84
2022-09-21T10:42:58.577Z,102238.69
2022-09-21T10:45:32.200Z,102241.41
2022-09-21T10:48:16.473Z,102232.34
2022-09-21T10:50:46.708Z,102238.81
2022-09-21T10:53:19.008Z,102234.78
2022-09-21T10:56:14.998Z,102231.81
2022-09-21T10:59:02.163Z,102233.75
2022-09-21T11:01:29.958Z,102232.56
2022-09-21T11:04:00.372Z,102236.56
2022-09-21T11:06:34.127Z,102234.09
2022-09-21T11:09:06.259Z,102219.41
2022-09-21T11:11:39.428Z,102228.50
2022-09-21T11:14:05.812Z,102229.94
2022-09-21T11:16:48.652Z,102222.13
2022-09-21T11:19:15.004Z,102225.03
2022-09-21T11:21:44.225Z,102230.91
2022-09-21T11:24:10.544Z,102231.00
2022-09-21T11:26:40.651Z,102226.00
2022-09-21T11:29:18.987Z,102226.38
2022-09-21T11:31:48.208Z,102222.44
2022-09-21T11:34:36.091Z,102212.53
2022-09-21T11:37:02.437Z,102208.91
2022-09-21T11:39:34.653Z,102213.56
2022-09-21T11:42:11.051Z,102212.72
2022-09-21T11:44:55.861Z,102212.38
2022-09-21T11:47:37.562Z,102195.84
2022-09-21T11:50:31.299Z,102195.97
2022-09-21T11:53:18.369Z,102195.97
2022-09-21T11:56:17.220Z,102192.50
2022-09-21T11:59:04.133Z,102190.47
2022-09-21T12:01:36.710Z,102185.31
2022-09-21T12:04:12.249Z,102193.19
2022-09-21T12:06:50.722Z,102180.69
2022-09-21T12:09:43.795Z,102181.94
2022-09-21T12:12:17.048Z,102186.38
2022-09-21T12:14:50.329Z,102178.13
2022-09-21T12:17:21.127Z,102170.72
2022-09-21T12:19:56.842Z,102172.16
2022-09-21T12:22:32.331Z,102167.91
2022-09-21T12:25:04.882Z,102167.44
2022-09-21T12:27:37.943Z,102168.75
2022-09-21T12:30:11.115Z,102171.47
2022-09-21T12:33:03.896Z,102162.78
2022-09-21T12:35:44.438Z,102166.06
2022-09-21T12:38:20.066Z,102159.41
2022-09-21T12:40:51.579Z,102158.97
2022-09-21T12:43:36.570Z,102157.59
2022-09-21T12:46:02.973Z,102157.56
2022-09-21T12:48:33.908Z,102155.22
2022-09-21T12:51:12.012Z,102155.19
2022-09-21T12:53:40.155Z,102148.28
2022-09-21T12:56:10.241Z,102147.88
2022-09-21T12:58:45.844Z,102145.50
2022-09-21T13:01:15.281Z,102153.16
2022-09-21T13:03:55.043Z,102141.59
2022-09-21T13:06:36.677Z,102145.34
2022-09-21T13:09:07.346Z,102136.16
2022-09-21T13:11:49.703Z,102137.50
2022-09-21T13:14:17.220Z,102134.22
2022-09-21T13:16:43.641Z,102136.31
2022-09-21T13:19:13.001Z,102135.97
2022-09-21T13:21:40.036Z,102121.91
2022-09-21T13:24:07.943Z,102133.28
2022-09-21T13:26:37.497Z,102133.75
2022-09-21T13:29:19.004Z,102131.22
2022-09-21T13:31:59.347Z,102128.66
2022-09-21T13:34:28.603Z,102123.72
2022-09-21T13:37:17.749Z,102131.03
2022-09-21T13:39:44.819Z,102125.13
2022-09-21T13:42:40.604Z,102121.00
2022-09-21T13:45:13.688Z,102118.09
2022-09-21T13:47:41.683Z,102114.06
2022-09-21T13:50:26.954Z,102112.25
2022-09-21T13:52:57.461Z,102118.31
2022-09-21T13:55:23.814Z,102117.44
2022-09-21T13:57:52.082Z,102124.16
2022-09-21T14:00:19.841Z,102108.44
2022-09-21T14:02:46.255Z,102110.19
2022-09-21T14:05:19.348Z,102105.81
2022-09-21T14:07:48.069Z,102106.63
2022-09-21T14:10:18.685Z,102098.84
2022-09-21T14:12:45.548Z,102105.25
2022-09-21T14:15:14.943Z,102105.25
2022-09-21T14:17:41.621Z,102103.88
2022-09-21T14:20:30.279Z,102099.06
2022-09-21T14:23:19.243Z,102100.88
2022-09-21T14:25:53.103Z,102095.50
2022-09-21T14:28:26.752Z,102089.56
2022-09-21T14:30:57.965Z,102093.22
2022-09-21T14:33:27.487Z,102093.94
2022-09-21T14:35:54.985Z,102088.66
2022-09-21T14:38:27.121Z,102092.31
2022-09-21T14:40:56.302Z,102083.94
2022-09-21T14:43:28.018Z,102084.97
2022-09-21T14:46:01.307Z,102090.31
2022-09-21T14:48:34.437Z,102072.75
2022-09-21T14:51:22.888Z,102083.34
2022-09-21T14:53:49.241Z,102078.25
2022-09-21T14:56:15.784Z,102073.09
2022-09-21T14:58:57.249Z,102077.22
2022-09-21T15:01:36.093Z,102063.84
2022-09-21T15:04:11.409Z,102054.78
2022-09-21T15:07:00.932Z,102062.13
2022-09-21T15:09:45.921Z,102056.50
2022-09-21T15:12:16.157Z,102066.25
2022-09-21T15:14:46.215Z,102051.16
2022-09-21T15:17:24.219Z,102058.66
2022-09-21T15:19:50.770Z,102052.78
2022-09-21T15:22:18.632Z,102049.66
2022-09-21T15:25:11.960Z,102051.19
2022-09-21T15:27:41.678Z,102053.31
2022-09-21T15:30:18.655Z,102043.31
2022-09-21T15:32:46.676Z,102045.13
2022-09-21T15:35:17.446Z,102038.22
2022-09-21T15:37:45.689Z,102041.78
2022-09-21T15:40:16.979Z,102035.78
2022-09-21T15:43:01.526Z,102031.56
2022-09-21T15:45:29.512Z,102030.75
2022-09-21T15:47:56.656Z,102037.31
2022-09-21T15:50:23.375Z,102035.41
2022-09-21T15:53:10.149Z,102034.28
2022-09-21T15:55:36.664Z,102035.50
2022-09-21T15:58:12.095Z,102033.38
2022-09-21T16:00:39.899Z,102037.03
2022-09-21T16:03:08.254Z,102034.38
2022-09-21T16:05:48.296Z,102028.72
2022-09-21T16:08:19.557Z,102027.59
2022-09-21T16:10:45.935Z,102025.88
2022-09-21T16:13:31.175Z,102032.78
2022-09-21T16:16:04.960Z,102032.34
2022-09-21T16:18:35.189Z,102027.59
2022-09-21T16:21:08.521Z,102024.97
2022-09-21T16:23:37.102Z,102029.56
2022-09-21T16:26:03.615Z,102030.94
2022-09-21T16:28:40.869Z,102034.28
2022-09-21T16:31:22.639Z,102033.69
2022-09-21T16:33:49.122Z,102037.06
2022-09-21T16:36:33.877Z,102033.91
2022-09-21T16:39:06.451Z,102035.94
2022-09-21T16:41:34.870Z,102037.41
2022-09-21T16:44:02.791Z,102036.41
2022-09-21T16:46:31.669Z,102034.06
2022-09-21T16:49:00.233Z,102033.06
2022-09-21T16:51:27.859Z,102032.59
2022-09-21T16:53:55.678Z,102034.22
2022-09-21T16:56:22.384Z,102031.75
2022-09-21T16:58:48.750Z,102027.69
2022-09-21T17:01:18.106Z,102034.28
2022-09-21T17:03:46.290Z,102035.25
2022-09-21T17:06:15.874Z,102024.22
2022-09-21T17:08:42.379Z,102035.94
2022-09-21T17:11:08.705Z,102031.69
2022-09-21T17:13:35.073Z,102039.09
2022-09-21T17:16:01.798Z,102030.56
2022-09-21T17:18:28.281Z,102025.81
2022-09-21T17:20:54.720Z,102031.59
2022-09-21T17:23:27.453Z,102027.94
2022-09-21T17:25:53.852Z,102031.28
2022-09-21T17:28:25.642Z,102039.25
2022-09-21T17:30:52.918Z,102034.97
2022-09-21T17:33:21.375Z,102037.72
2022-09-21T17:35:50.619Z,102045.00
2022-09-21T17:38:17.862Z,102036.28
2022-09-21T17:40:44.484Z,102035.16
2022-09-21T17:43:11.936Z,102034.66
2022-09-21T17:45:50.400Z,102034.03
2022-09-21T17:48:21.953Z,102038.16
2022-09-21T17:50:48.916Z,102043.31
2022-09-21T17:53:34.548Z,102038.53
2022-09-21T17:56:13.241Z,102046.44
2022-09-21T17:58:45.939Z,102042.84
2022-09-21T18:01:31.338Z,102041.03
2022-09-21T18:03:57.842Z,102048.63
2022-09-21T18:06:24.445Z,102046.03
2022-09-21T18:08:50.924Z,102045.38
2022-09-21T18:11:21.659Z,102054.78
2022-09-21T18:14:04.482Z,102049.69
2022-09-21T18:16:30.860Z,102056.91
2022-09-21T18:18:57.206Z,102051.47
2022-09-21T18:21:27.843Z,102055.56
2022-09-21T18:24:00.289Z,102048.19
2022-09-21T18:26:26.723Z,102054.78
2022-09-21T18:28:59.312Z,102060.34
2022-09-21T18:31:40.974Z,102060.53
2022-09-21T18:34:45.907Z,102059.03
2022-09-21T18:37:12.973Z,102052.66
2022-09-21T18:39:48.432Z,102062.69
2022-09-21T18:42:20.753Z,102055.94
2022-09-21T18:44:50.543Z,102054.47
2022-09-21T18:47:27.835Z,102053.97
2022-09-21T18:49:57.178Z,102059.56
2022-09-21T18:52:29.660Z,102054.97
2022-09-21T18:54:56.170Z,102058.88
2022-09-21T18:57:23.359Z,102058.72
2022-09-21T18:59:50.235Z,102057.09
2022-09-21T19:02:20.024Z,102058.56
2022-09-21T19:04:46.731Z,102056.41
2022-09-21T19:07:25.393Z,102059.69
2022-09-21T19:09:56.916Z,102064.28
2022-09-21T19:12:40.001Z,102056.22
2022-09-21T19:15:17.137Z,102062.31
2022-09-21T19:17:57.513Z,102061.78
2022-09-21T19:20:34.168Z,102056.19
2022-09-21T19:23:03.311Z,102066.00
2022-09-21T19:25:34.148Z,102052.53
2022-09-21T19:28:02.581Z,102055.97
2022-09-21T19:30:29.845Z,102059.25
2022-09-21T19:33:02.424Z,102060.53
2022-09-21T19:35:29.961Z,102055.44
2022-09-21T19:38:01.351Z,102061.69
2022-09-21T19:40:37.084Z,102061.66
2022-09-21T19:43:15.633Z,102056.56
2022-09-21T19:46:04.829Z,102064.25
2022-09-21T19:48:59.016Z,102063.75
2022-09-21T19:51:38.424Z,102057.97
2022-09-21T19:54:29.764Z,102057.47
2022-09-21T19:57:14.624Z,102056.28
2022-09-21T19:59:43.779Z,102053.81
2022-09-21T20:02:14.823Z,102051.00
2022-09-21T20:04:46.124Z,102063.16
2022-09-21T20:07:34.010Z,102054.78
2022-09-21T20:10:15.313Z,102053.59
2022-09-21T20:12:49.915Z,102057.88
2022-09-21T20:15:21.528Z,102055.22
2022-09-21T20:17:47.886Z,102061.13
2022-09-21T20:20:21.408Z,102060.59
2022-09-21T20:22:47.866Z,102061.41
2022-09-21T20:25:34.881Z,102058.44
2022-09-21T20:28:02.158Z,102060.72
2022-09-21T20:30:32.564Z,102061.81
2022-09-21T20:33:09.259Z,102058.53
2022-09-21T20:35:35.733Z,102053.59
2022-09-21T20:38:03.132Z,102062.78
2022-09-21T20:40:31.061Z,102063.59
2022-09-21T20:42:58.358Z,102052.44
2022-09-21T20:45:24.797Z,102064.03
2022-09-21T20:47:51.976Z,102054.69
2022-09-21T20:50:19.004Z,102046.13
2022-09-21T20:52:45.438Z,102058.28
2022-09-21T20:55:13.644Z,102050.06
2022-09-21T20:57:42.926Z,102060.84
2022-09-21T21:00:13.719Z,102046.91
2022-09-21T21:02:40.235Z,102051.59
2022-09-21T21:05:07.872Z,102055.19
2022-09-21T21:07:35.129Z,102055.50
2022-09-21T21:10:02.193Z,102055.50
2022-09-21T21:12:28.738Z,102055.69
2022-09-21T21:14:55.685Z,102058.06
2022-09-21T21:17:22.051Z,102058.22
2022-09-21T21:19:48.412Z,102053.41
2022-09-21T21:22:14.816Z,102056.19
2022-09-21T21:24:41.449Z,102058.16
2022-09-21T21:27:11.511Z,102056.81
2022-09-21T21:29:38.210Z,102055.81
2022-09-21T21:32:05.319Z,102059.59
2022-09-21T21:34:31.758Z,102055.44
2022-09-21T21:36:58.277Z,102058.38
2022-09-21T21:39:24.657Z,102057.34
2022-09-21T21:41:51.026Z,102053.09
2022-09-21T21:44:17.384Z,102059.97
2022-09-21T21:46:43.829Z,102051.41
2022-09-21T21:49:10.315Z,102048.28
2022-09-21T21:51:36.756Z,102048.72
2022-09-21T21:54:03.254Z,102047.09
2022-09-21T21:56:29.665Z,102053.16
2022-09-21T21:58:56.043Z,102044.63
2022-09-21T22:01:24.504Z,102052.75
2022-09-21T22:03:54.699Z,102041.47
2022-09-21T22:06:21.671Z,102047.97
2022-09-21T22:08:48.472Z,102041.91
2022-09-21T22:11:17.530Z,102039.72
2022-09-21T22:13:45.190Z,102042.50
2022-09-21T22:16:12.850Z,102031.19
2022-09-21T22:18:39.778Z,102038.38
2022-09-21T22:21:10.623Z,102035.22
2022-09-21T22:23:37.286Z,102038.16
2022-09-21T22:26:04.815Z,102042.56
2022-09-21T22:28:32.080Z,102040.41
2022-09-21T22:30:59.666Z,102034.34
2022-09-21T22:33:28.918Z,102037.09
2022-09-21T22:36:09.239Z,102034.78
2022-09-21T22:38:41.913Z,102036.56
2022-09-21T22:41:10.320Z,102036.56
2022-09-21T22:43:36.965Z,102046.50
2022-09-21T22:46:04.147Z,102039.22
2022-09-21T22:48:30.609Z,102042.81
2022-09-21T22:50:57.123Z,102036.75
2022-09-21T22:53:23.615Z,102037.75
2022-09-21T22:56:00.224Z,102034.56
2022-09-21T22:58:26.576Z,102043.41
2022-09-21T23:00:52.950Z,102035.03
2022-09-21T23:03:19.315Z,102033.38
2022-09-21T23:05:55.038Z,102039.72
2022-09-21T23:08:21.352Z,102040.72
2022-09-21T23:10:47.666Z,102035.06
2022-09-21T23:13:15.885Z,102031.91
2022-09-21T23:15:42.743Z,102035.50
2022-09-21T23:18:09.488Z,102028.63
2022-09-21T23:20:35.961Z,102039.25
2022-09-21T23:23:03.517Z,102035.22
2022-09-21T23:25:29.970Z,102034.41
2022-09-21T23:27:57.610Z,102040.06
2022-09-21T23:30:23.963Z,102040.06
2022-09-21T23:32:53.220Z,102031.41
2022-09-21T23:35:19.545Z,102033.50
2022-09-21T23:37:45.997Z,102033.91
2022-09-21T23:40:12.926Z,102033.78
2022-09-21T23:42:39.292Z,102033.09
2022-09-21T23:45:05.892Z,102036.00
2022-09-21T23:47:32.223Z,102035.47
2022-09-21T23:49:58.549Z,102032.00
2022-09-21T23:52:24.869Z,102034.50
2022-09-21T23:54:51.218Z,102028.72
2022-09-21T23:57:17.764Z,102037.53
2022-09-21T23:59:44.091Z,102031.63
